Time;durP1;ratioP1;P1;durP2;ratioP2;P2;SDS_P1;SDS_P2;PMS_P1;PMS_P2;Temp;Humidity;BMP_temperature;BMP_pressure;BME280_temperature;BME280_humidity;BME280_pressure;Samples;Min_cycle;Max_cycle;Signal;HPM_P1;HPM_P2
2023/05/08 00:02:00;;;;;;;3.45;2.20;;;17.50;56.10;;;;;;4943127;28;20071;-87
2023/05/08 00:04:26;;;;;;;4.45;2.30;;;17.40;56.00;;;;;;4930333;28;20028;-87
2023/05/08 00:06:52;;;;;;;3.90;2.25;;;17.40;56.20;;;;;;4940630;28;20043;-85
2023/05/08 00:09:19;;;;;;;3.03;2.33;;;17.30;56.10;;;;;;4933981;28;20033;-84
2023/05/08 00:11:45;;;;;;;2.90;2.45;;;17.30;56.20;;;;;;4933452;29;20059;-82
2023/05/08 00:14:11;;;;;;;2.13;1.95;;;17.30;56.30;;;;;;4932564;28;20070;-86
2023/05/08 00:16:37;;;;;;;4.43;2.88;;;17.20;56.30;;;;;;4938770;28;20499;-85
2023/05/08 00:19:03;;;;;;;2.17;1.90;;;17.20;56.40;;;;;;4945144;28;20036;-85
2023/05/08 00:21:30;;;;;;;3.50;1.92;;;17.20;56.50;;;;;;4941625;28;20681;-85
2023/05/08 00:23:56;;;;;;;4.38;2.30;;;17.10;56.50;;;;;;4959361;28;20062;-90
2023/05/08 00:26:22;;;;;;;2.50;2.22;;;17.00;56.40;;;;;;4945191;28;20047;-85
2023/05/08 00:28:48;;;;;;;4.07;2.60;;;17.00;56.50;;;;;;4938570;28;20043;-87
2023/05/08 00:31:14;;;;;;;3.58;1.70;;;16.90;56.40;;;;;;4939631;28;20036;-83
2023/05/08 00:33:40;;;;;;;2.35;1.88;;;16.90;56.50;;;;;;4944012;28;20065;-84
2023/05/08 00:36:06;;;;;;;2.90;2.22;;;16.90;56.60;;;;;;4941889;28;20182;-84
2023/05/08 00:38:33;;;;;;;4.15;2.22;;;16.90;56.80;;;;;;4939932;28;20039;-85
2023/05/08 00:41:00;;;;;;;2.10;1.85;;;16.80;56.60;;;;;;4937271;28;20137;-85
2023/05/08 00:43:27;;;;;;;4.05;1.85;;;16.80;56.70;;;;;;4936930;28;20499;-84
2023/05/08 00:45:59;;;;;;;3.30;2.25;;;16.80;56.80;;;;;;4937721;28;20036;-84
2023/05/08 00:48:29;;;;;;;2.42;1.85;;;16.70;56.80;;;;;;4941807;28;20055;-84
2023/05/08 00:50:55;;;;;;;4.18;2.50;;;16.70;56.80;;;;;;4946537;29;20109;-84
2023/05/08 00:53:24;;;;;;;2.72;2.10;;;16.70;56.80;;;;;;4953484;28;20073;-84
2023/05/08 00:55:51;;;;;;;3.97;2.10;;;16.60;56.70;;;;;;4946772;28;20035;-85
2023/05/08 00:58:20;;;;;;;2.85;2.42;;;16.60;56.80;;;;;;4940774;28;20042;-85
2023/05/08 01:00:47;;;;;;;5.28;2.53;;;16.60;56.90;;;;;;4938796;28;20616;-85
2023/05/08 01:03:13;;;;;;;2.65;1.90;;;16.60;57.00;;;;;;4953456;28;20543;-85
2023/05/08 01:05:40;;;;;;;3.97;2.22;;;16.50;56.80;;;;;;4947615;28;20039;-85
2023/05/08 01:08:06;;;;;;;2.33;2.17;;;16.50;57.50;;;;;;4943525;28;20050;-84
2023/05/08 01:10:42;;;;;;;3.30;2.50;;;16.50;56.90;;;;;;4940703;28;20466;-84
2023/05/08 01:13:19;;;;;;;3.58;2.55;;;16.50;57.10;;;;;;4942881;28;20258;-84
2023/05/08 01:15:56;;;;;;;4.82;2.65;;;16.50;57.10;;;;;;4932373;28;20419;-84
2023/05/08 01:18:37;;;;;;;4.57;2.38;;;16.40;56.90;;;;;;4941492;28;20483;-85
2023/05/08 01:21:17;;;;;;;3.95;2.40;;;16.40;57.00;;;;;;4936443;29;20063;-83
2023/05/08 01:24:01;;;;;;;4.38;1.95;;;16.40;57.00;;;;;;4933393;28;20040;-85
2023/05/08 01:27:10;;;;;;;5.60;2.58;;;16.40;57.10;;;;;;4927641;28;20036;-84
2023/05/08 01:30:05;;;;;;;4.97;2.50;;;16.40;57.20;;;;;;4939190;28;20042;-85
2023/05/08 01:32:45;;;;;;;2.72;2.15;;;16.40;57.20;;;;;;4942817;28;20341;-85
2023/05/08 01:35:33;;;;;;;4.03;2.17;;;16.40;57.20;;;;;;4955850;28;20042;-85
2023/05/08 01:38:09;;;;;;;3.03;2.35;;;16.30;57.10;;;;;;4937505;28;20186;-82
2023/05/08 01:40:55;;;;;;;5.82;2.33;;;16.30;57.10;;;;;;4939503;28;20145;-84
2023/05/08 01:43:24;;;;;;;4.35;2.83;;;16.30;57.20;;;;;;4935680;28;20086;-85
2023/05/08 01:45:53;;;;;;;2.90;1.80;;;16.30;57.10;;;;;;4927347;28;20431;-84
2023/05/08 01:48:24;;;;;;;4.50;2.47;;;16.30;57.20;;;;;;4953932;28;20054;-83
2023/05/08 01:50:58;;;;;;;2.42;2.22;;;16.30;57.30;;;;;;4958418;28;20031;-83
2023/05/08 01:53:39;;;;;;;4.55;2.47;;;16.30;57.40;;;;;;4954968;28;20125;-83
2023/05/08 01:56:12;;;;;;;4.90;2.70;;;16.20;57.40;;;;;;4956297;28;20348;-84
2023/05/08 01:58:40;;;;;;;2.72;2.13;;;16.20;57.30;;;;;;4956172;28;20280;-83
2023/05/08 02:01:08;;;;;;;3.97;2.35;;;16.20;57.30;;;;;;4951954;28;20122;-83
2023/05/08 02:03:36;;;;;;;4.20;2.63;;;16.20;57.40;;;;;;4962296;28;20043;-83
2023/05/08 02:06:03;;;;;;;3.58;2.10;;;16.10;57.30;;;;;;4959293;28;20042;-82
2023/05/08 02:08:32;;;;;;;3.45;2.28;;;16.10;57.40;;;;;;4957280;28;20070;-82
2023/05/08 02:11:00;;;;;;;3.33;2.08;;;16.10;57.40;;;;;;4947352;28;20042;-82
2023/05/08 02:13:28;;;;;;;4.25;2.90;;;16.10;57.50;;;;;;4959249;28;20101;-82
2023/05/08 02:15:56;;;;;;;4.18;2.05;;;16.10;57.60;;;;;;4951815;28;20148;-83
2023/05/08 02:18:23;;;;;;;3.00;2.25;;;16.10;57.60;;;;;;4960108;28;20030;-83
2023/05/08 02:20:51;;;;;;;3.80;2.85;;;16.10;57.70;;;;;;4962727;28;20621;-83
2023/05/08 02:23:22;;;;;;;2.35;2.15;;;16.10;57.70;;;;;;4949211;28;20074;-83
2023/05/08 02:25:50;;;;;;;3.65;2.42;;;16.00;57.70;;;;;;4949462;28;20031;-83
2023/05/08 02:28:18;;;;;;;3.20;2.22;;;16.00;57.70;;;;;;4947514;28;20035;-81
2023/05/08 02:30:46;;;;;;;3.70;2.38;;;16.00;57.70;;;;;;4933293;29;20778;-84
2023/05/08 02:33:13;;;;;;;2.90;2.47;;;16.00;57.80;;;;;;4947635;28;20041;-85
2023/05/08 02:35:42;;;;;;;5.15;3.20;;;16.00;57.80;;;;;;4954536;28;20047;-84
2023/05/08 02:38:09;;;;;;;4.55;2.45;;;16.00;57.90;;;;;;4948917;28;20063;-84
2023/05/08 02:40:43;;;;;;;3.75;2.80;;;16.00;57.90;;;;;;4949539;28;20678;-85
2023/05/08 02:43:10;;;;;;;2.65;2.05;;;15.90;57.80;;;;;;4947054;28;20101;-86
2023/05/08 02:45:50;;;;;;;3.47;2.90;;;16.00;58.00;;;;;;4957421;28;20494;-84
2023/05/08 02:48:38;;;;;;;4.10;2.55;;;15.90;58.00;;;;;;4949941;28;20059;-84
2023/05/08 02:51:31;;;;;;;2.70;2.42;;;15.90;58.00;;;;;;4932562;28;20127;-83
2023/05/08 02:54:17;;;;;;;5.35;2.92;;;15.90;58.00;;;;;;4956493;28;20039;-85
2023/05/08 02:56:52;;;;;;;3.63;2.78;;;15.90;58.00;;;;;;4953755;28;20454;-84
2023/05/08 02:59:30;;;;;;;4.32;3.30;;;15.90;58.10;;;;;;4950646;28;20027;-83
2023/05/08 03:02:15;;;;;;;5.07;3.15;;;15.90;58.30;;;;;;4962230;28;20043;-83
2023/05/08 03:04:52;;;;;;;4.47;3.22;;;15.90;58.40;;;;;;4957466;28;20066;-83
2023/05/08 03:07:25;;;;;;;8.00;4.28;;;15.80;58.20;;;;;;4944102;28;20142;-83
2023/05/08 03:09:59;;;;;;;4.25;2.67;;;15.90;58.40;;;;;;4958435;28;21394;-83
2023/05/08 03:12:29;;;;;;;3.72;2.90;;;15.90;58.50;;;;;;4947668;28;20443;-83
2023/05/08 03:15:06;;;;;;;3.83;2.75;;;15.90;58.50;;;;;;4957572;28;20518;-83
2023/05/08 03:17:34;;;;;;;2.97;2.47;;;15.90;58.70;;;;;;4950981;28;20039;-84
2023/05/08 03:20:04;;;;;;;4.45;3.00;;;15.80;58.40;;;;;;4948630;28;20039;-84
2023/05/08 03:22:33;;;;;;;4.72;3.00;;;15.80;58.60;;;;;;4957984;28;20042;-82
2023/05/08 03:25:03;;;;;;;4.45;3.20;;;15.80;58.60;;;;;;4958515;28;20046;-83
2023/05/08 03:27:30;;;;;;;4.88;2.72;;;15.80;58.70;;;;;;4947602;28;20576;-83
2023/05/08 03:29:58;;;;;;;5.55;3.92;;;15.80;58.70;;;;;;4958984;28;20086;-82
2023/05/08 03:32:26;;;;;;;3.63;2.95;;;15.80;58.70;;;;;;4970054;28;20046;-84
2023/05/08 03:34:54;;;;;;;4.07;2.58;;;15.80;58.50;;;;;;4971293;28;20103;-84
2023/05/08 03:37:20;;;;;;;3.00;2.70;;;15.80;58.80;;;;;;4990838;28;20078;-81
2023/05/08 03:39:46;;;;;;;3.45;2.63;;;15.80;58.80;;;;;;4986908;28;20132;-82
2023/05/08 03:42:20;;;;;;;3.22;2.92;;;15.80;58.80;;;;;;4963687;28;20103;-83
2023/05/08 03:44:50;;;;;;;3.40;2.20;;;15.80;58.90;;;;;;4965888;28;20727;-82
2023/05/08 03:47:20;;;;;;;4.78;2.75;;;15.80;58.90;;;;;;4957849;28;20059;-85
2023/05/08 03:49:48;;;;;;;4.55;2.47;;;15.80;58.90;;;;;;4947531;28;20043;-85
2023/05/08 03:52:16;;;;;;;3.83;3.00;;;15.90;59.10;;;;;;4952752;28;20027;-85
2023/05/08 03:54:42;;;;;;;3.17;2.40;;;15.80;58.90;;;;;;4961585;28;20053;-85
2023/05/08 03:57:08;;;;;;;4.10;2.70;;;15.80;58.90;;;;;;4948555;28;20141;-84
2023/05/08 03:59:50;;;;;;;5.25;2.55;;;15.80;59.00;;;;;;4951080;28;20134;-85
2023/05/08 04:02:25;;;;;;;4.78;2.47;;;15.80;59.10;;;;;;4949597;28;20414;-84
2023/05/08 04:05:09;;;;;;;3.05;2.38;;;15.80;59.00;;;;;;4937876;28;20178;-85
2023/05/08 04:07:53;;;;;;;2.70;2.47;;;15.80;59.10;;;;;;4950192;28;20335;-84
2023/05/08 04:10:35;;;;;;;5.03;2.00;;;15.80;59.10;;;;;;4961366;28;20066;-85
2023/05/08 04:13:18;;;;;;;4.80;2.50;;;15.80;59.20;;;;;;4927234;29;20405;-85
2023/05/08 04:15:53;;;;;;;4.22;2.33;;;15.70;59.00;;;;;;4958988;28;20525;-85
2023/05/08 04:18:29;;;;;;;4.35;2.50;;;15.80;59.10;;;;;;4942742;28;20027;-85
2023/05/08 04:20:58;;;;;;;3.30;2.55;;;15.80;59.20;;;;;;4930311;28;20043;-86
2023/05/08 04:23:28;;;;;;;3.80;2.20;;;15.80;59.20;;;;;;4948252;28;20411;-84
2023/05/08 04:25:56;;;;;;;3.35;2.20;;;15.80;59.20;;;;;;4950959;28;20067;-85
2023/05/08 04:28:22;;;;;;;3.28;2.38;;;15.80;59.50;;;;;;4948529;29;20035;-85
2023/05/08 04:30:50;;;;;;;2.58;2.10;;;15.80;59.30;;;;;;4943316;28;20055;-85
2023/05/08 04:33:17;;;;;;;3.85;2.88;;;15.80;59.30;;;;;;4950707;28;20035;-85
2023/05/08 04:35:45;;;;;;;3.50;2.25;;;15.80;59.40;;;;;;4949099;28;20523;-85
2023/05/08 04:38:11;;;;;;;2.47;1.80;;;15.80;59.40;;;;;;4959138;28;20131;-87
2023/05/08 04:40:37;;;;;;;5.03;2.60;;;15.80;59.40;;;;;;4950295;28;20613;-86
2023/05/08 04:43:03;;;;;;;3.55;2.30;;;15.80;59.40;;;;;;4949735;28;20030;-85
2023/05/08 04:45:29;;;;;;;3.05;2.33;;;15.80;59.40;;;;;;4962842;28;20458;-87
2023/05/08 04:47:55;;;;;;;3.33;2.35;;;15.80;59.40;;;;;;4951229;28;20063;-86
2023/05/08 04:50:21;;;;;;;4.20;3.15;;;15.80;59.40;;;;;;4964431;28;20035;-85
2023/05/08 04:52:48;;;;;;;3.80;2.58;;;15.80;59.40;;;;;;4951016;28;20031;-84
2023/05/08 04:55:15;;;;;;;4.03;2.55;;;15.80;59.40;;;;;;4952451;28;20069;-84
2023/05/08 04:57:41;;;;;;;6.05;2.95;;;15.80;59.40;;;;;;4948997;28;20027;-83
2023/05/08 05:00:09;;;;;;;4.32;2.58;;;15.80;59.50;;;;;;4938171;29;20258;-84
2023/05/08 05:02:38;;;;;;;3.70;2.60;;;15.80;59.50;;;;;;4942297;28;20057;-84
2023/05/08 05:05:05;;;;;;;4.47;3.40;;;15.80;59.50;;;;;;4929903;29;20585;-85
2023/05/08 05:07:31;;;;;;;3.30;2.95;;;15.80;59.60;;;;;;4941463;28;20239;-84
2023/05/08 05:09:59;;;;;;;6.63;3.40;;;15.80;59.60;;;;;;4940870;28;20173;-85
2023/05/08 05:12:25;;;;;;;3.35;3.05;;;15.80;59.70;;;;;;4956807;28;20050;-87
2023/05/08 05:14:51;;;;;;;4.43;3.45;;;15.80;59.70;;;;;;4934962;28;20039;-85
2023/05/08 05:17:17;;;;;;;4.32;3.67;;;15.80;59.80;;;;;;4935665;28;20388;-85
2023/05/08 05:19:43;;;;;;;4.40;3.42;;;15.80;59.80;;;;;;4940446;28;20035;-83
2023/05/08 05:22:09;;;;;;;5.30;3.88;;;15.70;59.60;;;;;;4930856;28;20023;-85
2023/05/08 05:24:35;;;;;;;5.50;3.45;;;15.80;59.90;;;;;;4962708;28;20137;-86
2023/05/08 05:27:01;;;;;;;5.40;3.17;;;15.70;59.80;;;;;;4945841;28;20034;-84
2023/05/08 05:29:27;;;;;;;5.68;4.07;;;15.70;59.80;;;;;;4958591;28;20031;-83
2023/05/08 05:31:54;;;;;;;4.60;3.30;;;15.70;59.90;;;;;;4945666;28;20058;-81
2023/05/08 05:34:20;;;;;;;5.00;3.75;;;15.70;59.90;;;;;;4940996;28;20190;-81
2023/05/08 05:36:47;;;;;;;5.32;3.88;;;15.80;60.10;;;;;;4945016;28;20027;-81
2023/05/08 05:39:13;;;;;;;4.68;3.65;;;15.80;60.20;;;;;;4937448;28;20176;-82
2023/05/08 05:41:42;;;;;;;4.07;3.50;;;15.80;60.20;;;;;;4936110;28;20415;-85
2023/05/08 05:44:09;;;;;;;5.78;3.80;;;15.80;60.20;;;;;;4922554;29;20492;-87
2023/05/08 05:46:36;;;;;;;5.28;3.85;;;15.80;60.20;;;;;;4932124;28;20508;-93
2023/05/08 05:49:03;;;;;;;5.43;4.50;;;15.80;60.20;;;;;;4934929;28;20197;-86
2023/05/08 05:51:29;;;;;;;4.70;4.03;;;15.80;60.20;;;;;;4937685;28;20038;-90
2023/05/08 05:53:56;;;;;;;6.53;4.32;;;15.80;60.30;;;;;;4942852;28;20087;-92
2023/05/08 05:56:23;;;;;;;4.75;3.78;;;15.80;60.30;;;;;;4943141;28;20074;-93
2023/05/08 05:58:49;;;;;;;5.40;3.92;;;15.80;60.40;;;;;;4940188;28;20031;-93
2023/05/08 06:01:15;;;;;;;4.88;3.78;;;15.80;60.40;;;;;;4945606;28;20027;-86
2023/05/08 06:03:41;;;;;;;4.63;4.18;;;15.80;60.50;;;;;;4945518;28;20039;-84
2023/05/08 06:06:07;;;;;;;7.78;3.75;;;15.80;60.60;;;;;;4944422;28;20054;-81
2023/05/08 06:08:33;;;;;;;11.68;3.05;;;15.80;61.00;;;;;;4933229;28;20105;-82
2023/05/08 06:10:59;;;;;;;5.15;3.50;;;15.90;61.90;;;;;;4935773;28;20042;-83
2023/05/08 06:13:26;;;;;;;3.63;3.20;;;16.00;62.80;;;;;;4936196;28;20059;-83
2023/05/08 06:15:55;;;;;;;7.53;4.15;;;16.00;63.30;;;;;;4952706;28;20086;-85
2023/05/08 06:18:22;;;;;;;5.57;3.97;;;16.10;64.00;;;;;;4945335;28;20039;-83
2023/05/08 06:20:48;;;;;;;4.85;3.47;;;16.20;64.40;;;;;;4945568;28;20039;-85
2023/05/08 06:23:14;;;;;;;4.95;3.25;;;16.30;64.90;;;;;;4934834;28;20035;-82
2023/05/08 06:25:40;;;;;;;5.25;4.72;;;16.40;65.40;;;;;;4937514;28;20341;-82
2023/05/08 06:28:06;;;;;;;6.53;4.63;;;16.50;65.80;;;;;;4935813;28;20035;-84
2023/05/08 06:30:33;;;;;;;5.00;4.38;;;16.60;66.10;;;;;;4944281;28;20047;-81
2023/05/08 06:32:59;;;;;;;6.72;3.88;;;16.70;66.40;;;;;;4945308;28;20031;-80
2023/05/08 06:35:25;;;;;;;6.45;4.13;;;16.80;66.70;;;;;;4944919;28;20453;-92
2023/05/08 06:37:51;;;;;;;5.05;4.45;;;16.90;67.00;;;;;;4941879;28;20039;-93
2023/05/08 06:40:17;;;;;;;4.93;4.40;;;16.90;67.10;;;;;;4950421;28;20110;-80
2023/05/08 06:42:43;;;;;;;5.57;3.75;;;17.00;67.40;;;;;;4940532;28;20032;-82
2023/05/08 06:45:09;;;;;;;4.97;4.28;;;17.10;67.70;;;;;;4932799;28;20443;-82
2023/05/08 06:47:35;;;;;;;6.93;4.05;;;17.10;67.80;;;;;;4939998;28;20071;-81
2023/05/08 06:50:01;;;;;;;7.38;4.28;;;17.20;68.20;;;;;;4933993;28;20501;-81
2023/05/08 06:52:27;;;;;;;6.72;3.83;;;17.30;68.50;;;;;;4925441;28;20126;-82
2023/05/08 06:54:53;;;;;;;3.97;3.58;;;17.30;68.50;;;;;;4926958;28;20205;-81
2023/05/08 06:57:18;;;;;;;3.90;3.60;;;17.30;68.60;;;;;;4939355;28;20067;-81
2023/05/08 06:59:44;;;;;;;3.60;3.30;;;17.40;68.70;;;;;;4931676;28;20149;-81
2023/05/08 07:02:11;;;;;;;5.35;3.78;;;17.50;68.90;;;;;;4933171;28;20188;-80
2023/05/08 07:04:37;;;;;;;5.82;3.67;;;17.50;68.80;;;;;;4933587;28;20123;-80
2023/05/08 07:07:05;;;;;;;4.65;3.50;;;17.60;68.90;;;;;;4937872;28;20647;-80
2023/05/08 07:09:31;;;;;;;4.05;3.25;;;17.70;69.00;;;;;;4929016;28;20043;-81
2023/05/08 07:11:58;;;;;;;3.28;2.97;;;17.70;68.80;;;;;;4934131;28;20496;-81
2023/05/08 07:14:24;;;;;;;2.90;2.58;;;17.80;68.90;;;;;;4927677;28;20039;-82
2023/05/08 07:16:50;;;;;;;10.10;3.17;;;17.80;68.70;;;;;;4931451;28;20035;-81
2023/05/08 07:19:16;;;;;;;5.53;3.25;;;17.90;68.70;;;;;;4938760;28;20122;-80
2023/05/08 07:21:42;;;;;;;4.40;3.47;;;17.90;68.50;;;;;;4927740;28;20040;-80
2023/05/08 07:24:08;;;;;;;3.45;2.88;;;18.00;68.50;;;;;;4930287;28;20038;-81
2023/05/08 07:26:33;;;;;;;4.25;2.92;;;18.00;68.30;;;;;;4932486;28;20032;-81
2023/05/08 07:29:00;;;;;;;3.13;2.70;;;18.10;68.30;;;;;;4933564;28;20043;-82
2023/05/08 07:31:26;;;;;;;4.82;2.55;;;18.10;68.20;;;;;;4939171;28;20039;-82
2023/05/08 07:33:51;;;;;;;3.17;2.47;;;18.10;68.10;;;;;;4936677;28;20095;-83
2023/05/08 07:36:17;;;;;;;3.13;2.35;;;18.20;68.10;;;;;;4936898;28;20177;-82
2023/05/08 07:38:44;;;;;;;4.85;2.85;;;18.20;67.90;;;;;;4930774;28;20399;-83
2023/05/08 07:41:10;;;;;;;2.95;2.42;;;18.20;67.80;;;;;;4939024;28;20035;-81
2023/05/08 07:43:36;;;;;;;2.42;2.22;;;18.30;67.70;;;;;;4932129;28;20111;-83
2023/05/08 07:46:02;;;;;;;3.67;2.05;;;18.40;67.70;;;;;;4940876;28;20599;-82
2023/05/08 07:48:28;;;;;;;2.08;1.88;;;18.50;67.60;;;;;;4932847;28;20047;-83
2023/05/08 07:50:55;;;;;;;4.72;2.08;;;18.60;67.60;;;;;;4948366;28;20040;-82
2023/05/08 07:53:21;;;;;;;2.40;2.20;;;18.60;67.30;;;;;;4942504;28;20027;-81
2023/05/08 07:55:48;;;;;;;3.88;2.30;;;18.70;67.30;;;;;;4949614;28;20099;-81
2023/05/08 07:58:14;;;;;;;2.78;2.00;;;18.80;67.40;;;;;;4967218;28;20035;-80
2023/05/08 08:00:40;;;;;;;2.63;2.30;;;18.80;67.20;;;;;;4969327;28;20070;-79
2023/05/08 08:03:06;;;;;;;2.50;1.85;;;18.80;67.10;;;;;;4968887;28;20015;-79
2023/05/08 08:05:32;;;;;;;4.25;1.77;;;18.80;67.20;;;;;;4955552;28;20047;-80
2023/05/08 08:07:58;;;;;;;2.58;2.20;;;18.80;67.30;;;;;;4955269;28;20016;-82
2023/05/08 08:10:24;;;;;;;2.03;1.83;;;18.70;67.20;;;;;;4939578;28;20407;-82
2023/05/08 08:12:49;;;;;;;1.45;1.35;;;18.70;67.20;;;;;;4936544;28;20050;-82
2023/05/08 08:15:15;;;;;;;4.32;2.13;;;18.80;67.40;;;;;;4940545;28;20299;-84
2023/05/08 08:17:41;;;;;;;2.10;1.50;;;18.80;67.40;;;;;;4943085;28;20466;-82
2023/05/08 08:20:08;;;;;;;1.98;1.88;;;18.80;67.30;;;;;;4937113;28;20489;-84
2023/05/08 08:22:36;;;;;;;1.60;1.50;;;18.80;67.20;;;;;;4938512;28;20047;-84
2023/05/08 08:25:02;;;;;;;1.98;1.77;;;18.80;67.10;;;;;;4935611;28;20027;-85
2023/05/08 08:27:27;;;;;;;1.50;1.40;;;18.80;67.10;;;;;;4938087;28;20109;-83
2023/05/08 08:29:54;;;;;;;1.33;1.20;;;18.80;67.00;;;;;;4942832;28;20035;-83
2023/05/08 08:32:20;;;;;;;2.28;1.40;;;18.90;67.10;;;;;;4934638;28;20058;-81
2023/05/08 08:34:46;;;;;;;1.23;0.93;;;18.90;66.90;;;;;;4936630;28;20158;-83
2023/05/08 08:37:14;;;;;;;2.35;1.63;;;19.00;67.00;;;;;;4942484;28;20023;-84
2023/05/08 08:39:40;;;;;;;1.77;1.38;;;19.00;66.90;;;;;;4936283;28;20098;-86
2023/05/08 08:42:06;;;;;;;2.33;1.05;;;19.10;66.90;;;;;;4937694;28;20692;-81
2023/05/08 08:44:32;;;;;;;1.45;1.25;;;19.10;66.80;;;;;;4935726;28;20054;-84
2023/05/08 08:47:00;;;;;;;1.90;1.35;;;19.20;66.90;;;;;;4927485;28;20043;-83
2023/05/08 08:49:35;;;;;;;1.40;0.93;;;19.30;66.90;;;;;;4933873;28;20041;-82
2023/05/08 08:52:05;;;;;;;1.42;1.33;;;19.40;66.70;;;;;;4937343;28;20046;-84
2023/05/08 08:54:36;;;;;;;1.10;0.98;;;19.70;66.70;;;;;;4934990;28;20078;-84
2023/05/08 08:57:06;;;;;;;1.02;0.93;;;19.90;66.50;;;;;;4937522;28;20054;-85
2023/05/08 08:59:37;;;;;;;1.05;0.90;;;20.10;66.20;;;;;;4936303;28;20031;-82
2023/05/08 09:02:10;;;;;;;1.63;0.80;;;20.30;65.90;;;;;;4939177;28;20039;-83
2023/05/08 09:04:36;;;;;;;1.40;1.17;;;20.40;65.70;;;;;;4932431;28;20031;-81
2023/05/08 09:07:04;;;;;;;1.00;0.90;;;20.60;65.70;;;;;;4933446;28;20039;-82
2023/05/08 09:09:34;;;;;;;0.70;0.70;;;20.70;65.50;;;;;;4935234;28;20035;-82
2023/05/08 09:12:01;;;;;;;1.20;1.10;;;20.90;65.50;;;;;;4933550;28;20138;-81
2023/05/08 09:14:27;;;;;;;3.20;0.90;;;21.10;65.40;;;;;;4948181;28;20101;-81
2023/05/08 09:16:53;;;;;;;1.77;0.98;;;21.20;65.10;;;;;;4935452;28;20032;-81
2023/05/08 09:19:20;;;;;;;1.13;0.88;;;21.30;64.90;;;;;;4926702;28;20032;-81
2023/05/08 09:21:47;;;;;;;1.10;0.90;;;21.30;64.70;;;;;;4930795;28;20684;-82
2023/05/08 09:24:13;;;;;;;1.10;1.00;;;21.40;64.70;;;;;;4936152;28;20050;-81
2023/05/08 09:26:40;;;;;;;1.00;0.70;;;21.40;64.60;;;;;;4935891;28;20396;-81
2023/05/08 09:29:17;;;;;;;1.10;0.70;;;21.50;64.60;;;;;;4935331;28;20031;-80
2023/05/08 09:31:49;;;;;;;0.85;0.80;;;21.50;64.40;;;;;;4936659;28;20031;-81
2023/05/08 09:34:28;;;;;;;1.58;0.77;;;21.60;64.40;;;;;;4932991;28;20101;-83
2023/05/08 09:37:17;;;;;;;1.38;0.80;;;21.60;64.30;;;;;;4936634;28;20497;-82
2023/05/08 09:39:46;;;;;;;1.48;1.25;;;21.60;64.10;;;;;;4932466;28;20142;-82
2023/05/08 09:42:13;;;;;;;1.30;1.08;;;21.60;64.00;;;;;;4935124;28;20119;-82
2023/05/08 09:44:53;;;;;;;0.98;0.93;;;21.50;63.80;;;;;;4935730;28;20046;-83
2023/05/08 09:47:24;;;;;;;0.73;0.73;;;21.50;63.80;;;;;;4936560;28;20511;-83
2023/05/08 09:50:03;;;;;;;1.02;0.80;;;21.40;64.20;;;;;;4935267;28;20027;-83
2023/05/08 09:52:30;;;;;;;1.02;0.90;;;21.40;63.70;;;;;;4933826;28;20036;-82
2023/05/08 09:55:06;;;;;;;0.82;0.80;;;21.30;63.50;;;;;;4934244;28;20049;-83
2023/05/08 09:57:35;;;;;;;1.15;0.98;;;21.20;63.50;;;;;;4936117;28;20047;-83
2023/05/08 10:00:09;;;;;;;0.73;0.63;;;21.20;63.60;;;;;;4941414;28;20380;-84
2023/05/08 10:02:38;;;;;;;0.90;0.80;;;21.20;63.60;;;;;;4940449;28;20154;-84
2023/05/08 10:05:23;;;;;;;1.52;0.75;;;21.10;63.50;;;;;;4942580;28;20060;-84
2023/05/08 10:07:50;;;;;;;0.82;0.60;;;21.10;63.50;;;;;;4939760;28;20466;-81
2023/05/08 10:10:25;;;;;;;0.68;0.68;;;21.10;63.50;;;;;;4938053;28;20045;-84
2023/05/08 10:12:52;;;;;;;1.15;1.00;;;21.10;63.50;;;;;;4931095;28;20035;-84
2023/05/08 10:15:24;;;;;;;1.23;0.90;;;21.10;63.50;;;;;;4935159;28;20109;-85
2023/05/08 10:17:59;;;;;;;1.67;0.90;;;21.10;63.40;;;;;;4947086;28;20074;-83
2023/05/08 10:20:29;;;;;;;1.33;0.88;;;21.10;63.30;;;;;;4925077;28;20031;-83
2023/05/08 10:22:56;;;;;;;1.10;0.70;;;21.10;63.30;;;;;;4945894;28;20055;-83
2023/05/08 10:25:23;;;;;;;1.38;0.90;;;21.10;63.30;;;;;;4931421;28;20574;-84
2023/05/08 10:28:10;;;;;;;1.75;0.95;;;21.10;63.20;;;;;;4932080;28;20107;-84
2023/05/08 10:30:42;;;;;;;1.35;0.60;;;21.10;63.20;;;;;;4935178;28;20039;-83
2023/05/08 10:33:09;;;;;;;0.77;0.65;;;21.10;63.10;;;;;;4932029;28;20074;-84
2023/05/08 10:35:38;;;;;;;0.85;0.80;;;21.10;63.10;;;;;;4934745;28;20044;-82
2023/05/08 10:38:07;;;;;;;1.10;0.82;;;21.10;63.00;;;;;;4933766;28;20122;-84
2023/05/08 10:40:34;;;;;;;1.42;0.90;;;21.20;63.10;;;;;;4930756;28;20563;-82
2023/05/08 10:43:01;;;;;;;0.82;0.75;;;21.20;62.90;;;;;;4934698;28;20405;-84
2023/05/08 10:45:28;;;;;;;1.80;1.30;;;21.20;62.80;;;;;;4934106;28;20506;-84
2023/05/08 10:48:42;;;;;;;1.90;0.82;;;21.30;62.90;;;;;;4934426;28;20043;-80
2023/05/08 10:51:31;;;;;;;0.82;0.70;;;21.30;62.70;;;;;;4921103;28;20467;-80
2023/05/08 10:54:09;;;;;;;1.85;0.80;;;21.50;62.80;;;;;;4927018;28;20027;-80
2023/05/08 10:56:37;;;;;;;1.23;1.00;;;21.50;62.70;;;;;;4930931;28;20118;-81
2023/05/08 10:59:05;;;;;;;1.17;0.80;;;21.50;62.60;;;;;;4928617;28;20416;-84
2023/05/08 11:01:31;;;;;;;82.88;28.02;;;21.60;62.80;;;;;;4932037;28;20043;-83
2023/05/08 11:03:56;;;;;;;159.10;55.40;;;21.60;62.90;;;;;;4930831;28;20027;-82
2023/05/08 11:06:46;;;;;;;65.32;21.58;;;21.60;63.30;;;;;;4940758;28;20050;-84
2023/05/08 11:09:20;;;;;;;72.18;22.77;;;21.50;63.50;;;;;;4929094;28;20035;-83
2023/05/08 11:11:58;;;;;;;67.43;21.05;;;21.60;63.90;;;;;;4939983;28;20038;-85
2023/05/08 11:14:25;;;;;;;53.03;19.27;;;21.50;64.20;;;;;;4942062;28;20553;-87
2023/05/08 11:16:55;;;;;;;51.58;17.95;;;21.60;64.90;;;;;;4945958;28;20035;-88
2023/05/08 11:19:22;;;;;;;45.60;16.85;;;21.60;65.80;;;;;;4958877;28;20047;-85
2023/05/08 11:22:11;;;;;;;47.47;16.35;;;21.60;66.30;;;;;;4939699;28;20042;-84
2023/05/08 11:24:56;;;;;;;34.25;12.65;;;21.60;67.30;;;;;;4931835;28;20035;-84
2023/05/08 11:27:43;;;;;;;32.25;11.52;;;21.70;67.30;;;;;;4953328;28;20174;-85
2023/05/08 11:30:21;;;;;;;33.53;12.55;;;21.70;67.70;;;;;;4916397;28;20037;-85
2023/05/08 11:33:03;;;;;;;23.30;9.70;;;21.70;67.80;;;;;;4940718;28;20550;-85
2023/05/08 11:35:41;;;;;;;20.73;8.73;;;21.70;67.80;;;;;;4931327;28;20187;-86
2023/05/08 11:38:18;;;;;;;23.83;9.30;;;21.80;67.70;;;;;;4935908;28;20039;-84
2023/05/08 11:40:57;;;;;;;18.27;7.68;;;21.70;67.40;;;;;;4935721;28;20049;-84
2023/05/08 11:43:32;;;;;;;18.00;7.85;;;21.80;67.50;;;;;;4929859;28;20024;-84
2023/05/08 11:46:04;;;;;;;15.93;7.18;;;21.80;67.30;;;;;;4924728;28;20171;-82
2023/05/08 11:48:31;;;;;;;15.85;6.43;;;21.80;67.00;;;;;;4947029;28;20568;-83
2023/05/08 11:51:01;;;;;;;14.57;5.72;;;21.90;66.90;;;;;;4930774;28;20162;-85
2023/05/08 11:53:30;;;;;;;15.90;5.47;;;21.90;66.70;;;;;;4933976;28;20058;-84
2023/05/08 11:55:56;;;;;;;15.60;6.50;;;22.00;66.70;;;;;;4932706;28;20042;-85
2023/05/08 11:58:22;;;;;;;18.17;5.25;;;22.00;66.50;;;;;;4935831;28;20093;-86
2023/05/08 12:00:49;;;;;;;12.70;5.90;;;22.00;66.30;;;;;;4955085;28;20035;-86
2023/05/08 12:03:20;;;;;;;10.45;4.63;;;22.10;66.30;;;;;;4938321;28;20376;-86
2023/05/08 12:05:48;;;;;;;9.60;4.57;;;22.10;66.10;;;;;;4931783;28;20074;-82
2023/05/08 12:08:16;;;;;;;11.50;5.50;;;22.20;66.00;;;;;;4934898;28;20305;-83
2023/05/08 12:10:45;;;;;;;9.80;4.05;;;22.30;65.90;;;;;;4937200;28;20032;-82
2023/05/08 12:13:29;;;;;;;9.40;4.32;;;22.50;65.80;;;;;;4933363;29;20027;-83
2023/05/08 12:15:59;;;;;;;10.63;4.03;;;22.60;65.50;;;;;;4935987;28;20043;-84
2023/05/08 12:18:28;;;;;;;10.20;3.85;;;22.70;65.30;;;;;;4934816;28;20518;-81
2023/05/08 12:20:56;;;;;;;8.05;3.95;;;22.90;65.30;;;;;;4935648;28;20590;-80
2023/05/08 12:23:25;;;;;;;6.65;3.20;;;23.10;65.10;;;;;;4936234;28;20504;-81
2023/05/08 12:25:54;;;;;;;7.63;3.28;;;23.20;64.90;;;;;;4932089;28;20032;-81
2023/05/08 12:28:20;;;;;;;6.85;2.60;;;23.40;64.90;;;;;;4929282;28;20182;-81
2023/05/08 12:30:47;;;;;;;4.97;2.85;;;23.60;64.70;;;;;;4929866;28;20346;-79
2023/05/08 12:33:13;;;;;;;8.43;3.53;;;23.70;64.40;;;;;;4938022;28;20039;-80
2023/05/08 12:35:39;;;;;;;7.10;3.05;;;23.80;64.20;;;;;;4936041;28;20039;-82
2023/05/08 12:38:07;;;;;;;6.38;2.75;;;23.80;64.00;;;;;;4934353;28;20035;-81
2023/05/08 12:40:35;;;;;;;3.83;2.42;;;23.80;63.80;;;;;;4939179;29;20043;-80
2023/05/08 12:43:02;;;;;;;6.80;2.70;;;23.70;63.60;;;;;;4938647;28;20024;-81
2023/05/08 12:45:32;;;;;;;5.72;2.88;;;23.70;63.70;;;;;;4958767;28;20027;-80
2023/05/08 12:48:02;;;;;;;5.95;2.40;;;23.60;63.50;;;;;;4964143;28;20319;-79
2023/05/08 12:50:32;;;;;;;3.78;1.90;;;23.70;63.50;;;;;;4982489;28;20027;-79
2023/05/08 12:53:07;;;;;;;4.13;1.38;;;23.80;63.50;;;;;;4964290;28;20039;-80
2023/05/08 12:55:34;;;;;;;3.20;1.75;;;23.80;63.10;;;;;;4967355;28;20275;-81
2023/05/08 12:58:05;;;;;;;4.18;1.98;;;23.80;63.00;;;;;;4954988;28;20161;-83
2023/05/08 13:00:40;;;;;;;3.20;1.58;;;23.90;63.00;;;;;;4925965;29;20045;-82